Time;durP1;ratioP1;P1;durP2;ratioP2;P2;SDS_P1;SDS_P2;PMS_P1;PMS_P2;Temp;Humidity;BMP_temperature;BMP_pressure;BME280_temperature;BME280_humidity;BME280_pressure;Samples;Min_cycle;Max_cycle;Signal;HPM_P1;HPM_P2
2022/10/13 00:01:36;;;;;;;;;;;;;;;14.53;72.75;101407.31;5077751;28;19924;-80
2022/10/13 00:04:20;;;;;;;;;;;;;;;14.61;72.53;101400.25;5083807;28;20299;-81
2022/10/13 00:07:04;;;;;;;;;;;;;;;14.54;72.86;101408.13;5078185;28;19921;-81
2022/10/13 00:09:49;;;;;;;;;;;;;;;14.64;72.29;101404.25;5078743;28;19917;-81
2022/10/13 00:12:37;;;;;;;;;;;;;;;14.66;72.00;101410.22;5078100;28;20295;-81
2022/10/13 00:15:25;;;;;;;;;;;;;;;14.80;71.39;101410.81;5076695;28;20282;-81
2022/10/13 00:18:10;;;;;;;;;;;;;;;14.73;71.52;101410.53;5078011;28;19916;-81
2022/10/13 00:20:54;;;;;;;;;;;;;;;14.73;71.57;101413.25;5069392;28;19921;-81
2022/10/13 00:23:39;;;;;;;;;;;;;;;14.80;71.32;101417.09;5057312;28;19917;-81
2022/10/13 00:26:24;;;;;;;;;;;;;;;14.84;71.28;101407.09;5061191;28;19925;-81
2022/10/13 00:29:09;;;;;;;;;;;;;;;14.71;71.94;101410.84;5057397;28;19916;-80
2022/10/13 00:31:54;;;;;;;;;;;;;;;14.75;71.84;101402.78;5058824;28;19917;-81
2022/10/13 00:34:38;;;;;;;;;;;;;;;14.77;71.70;101409.53;5065635;28;20327;-81
2022/10/13 00:37:24;;;;;;;;;;;;;;;14.57;72.55;101412.97;5074871;28;19924;-80
2022/10/13 00:40:08;;;;;;;;;;;;;;;14.60;72.88;101411.50;5069134;28;19920;-81
2022/10/13 00:42:53;;;;;;;;;;;;;;;14.84;71.94;101409.03;5056941;28;19916;-81
2022/10/13 00:45:37;;;;;;;;;;;;;;;14.73;72.50;101416.00;5057332;28;19916;-81
2022/10/13 00:48:27;;;;;;;;;;;;;;;14.80;72.37;101416.28;5057700;28;19916;-80
2022/10/13 00:51:13;;;;;;;;;;;;;;;14.78;72.35;101418.56;5057593;28;19917;-82
2022/10/13 00:53:58;;;;;;;;;;;;;;;14.93;72.25;101415.31;5056905;28;19925;-81
2022/10/13 00:56:44;;;;;;;;;;;;;;;14.89;72.44;101414.31;5073232;28;19916;-82
2022/10/13 00:59:28;;;;;;;;;;;;;;;14.92;72.32;101408.22;5090632;28;19921;-82
2022/10/13 01:02:14;;;;;;;;;;;;;;;15.08;71.79;101409.28;5077111;28;19917;-82
2022/10/13 01:04:58;;;;;;;;;;;;;;;15.25;70.90;101411.94;5071799;28;19917;-82
2022/10/13 01:07:47;;;;;;;;;;;;;;;15.07;71.65;101415.06;5056937;28;19917;-82
2022/10/13 01:10:50;;;;;;;;;;;;;;;14.82;72.22;101417.59;5071401;28;19917;-82
2022/10/13 01:13:41;;;;;;;;;;;;;;;14.85;72.20;101407.91;5076690;28;19920;-83
2022/10/13 01:16:25;;;;;;;;;;;;;;;14.86;72.31;101414.97;5057304;28;19917;-82
2022/10/13 01:19:13;;;;;;;;;;;;;;;14.96;71.86;101404.47;5055994;28;19920;-81
2022/10/13 01:21:57;;;;;;;;;;;;;;;15.20;70.96;101409.38;5075822;28;19917;-82
2022/10/13 01:24:52;;;;;;;;;;;;;;;15.16;70.84;101411.16;5074085;28;19917;-81
2022/10/13 01:27:39;;;;;;;;;;;;;;;15.09;71.03;101401.84;5056541;28;19916;-82
2022/10/13 01:30:23;;;;;;;;;;;;;;;14.77;72.02;101403.25;5069265;28;19917;-82
2022/10/13 01:33:11;;;;;;;;;;;;;;;14.72;72.46;101392.47;5073509;28;19924;-82
2022/10/13 01:35:55;;;;;;;;;;;;;;;14.88;72.09;101390.81;5055986;28;19916;-82
2022/10/13 01:39:01;;;;;;;;;;;;;;;14.93;72.04;101387.91;5069331;28;19916;-81
2022/10/13 01:41:50;;;;;;;;;;;;;;;14.68;72.59;101377.84;5056004;28;19917;-82
2022/10/13 01:44:37;;;;;;;;;;;;;;;14.53;73.45;101379.94;5056762;28;20296;-82
2022/10/13 01:47:21;;;;;;;;;;;;;;;14.42;74.13;101369.69;5076181;28;19917;-81
2022/10/13 01:50:07;;;;;;;;;;;;;;;14.25;74.83;101373.22;5057179;28;19917;-82
2022/10/13 01:52:54;;;;;;;;;;;;;;;14.30;74.64;101374.97;5057862;28;19917;-83
2022/10/13 01:55:48;;;;;;;;;;;;;;;14.44;74.01;101370.16;5055855;28;20350;-82
2022/10/13 01:58:34;;;;;;;;;;;;;;;14.20;74.76;101369.84;5072160;28;19917;-83
2022/10/13 02:01:34;;;;;;;;;;;;;;;14.25;74.48;101367.75;5056575;28;19917;-82
2022/10/13 02:04:37;;;;;;;;;;;;;;;14.20;74.65;101364.38;5055492;28;19917;-82
2022/10/13 02:07:27;;;;;;;;;;;;;;;14.17;74.75;101363.06;5069500;28;19917;-81
2022/10/13 02:10:26;;;;;;;;;;;;;;;14.19;74.79;101358.09;5057141;28;20466;-81
2022/10/13 02:13:11;;;;;;;;;;;;;;;14.19;74.69;101360.03;5071162;28;19917;-82
2022/10/13 02:15:58;;;;;;;;;;;;;;;14.22;74.30;101357.44;5055690;28;19917;-81
2022/10/13 02:18:43;;;;;;;;;;;;;;;14.14;74.56;101352.78;5054968;28;19917;-82
2022/10/13 02:21:27;;;;;;;;;;;;;;;14.15;74.67;101351.66;5055487;28;19917;-81
2022/10/13 02:24:12;;;;;;;;;;;;;;;14.12;75.15;101350.38;5075622;28;20384;-80
2022/10/13 02:26:57;;;;;;;;;;;;;;;14.07;75.11;101347.78;5072179;28;19917;-82
2022/10/13 02:29:53;;;;;;;;;;;;;;;14.16;74.68;101350.53;5066482;28;20380;-81
2022/10/13 02:32:38;;;;;;;;;;;;;;;14.02;75.29;101342.50;5075767;28;19917;-82
2022/10/13 02:35:22;;;;;;;;;;;;;;;13.98;76.00;101348.94;5075518;28;20291;-81
2022/10/13 02:38:07;;;;;;;;;;;;;;;14.14;74.86;101347.31;5075341;28;19916;-81
2022/10/13 02:40:53;;;;;;;;;;;;;;;13.71;76.34;101337.19;5075023;28;19920;-81
2022/10/13 02:43:38;;;;;;;;;;;;;;;13.90;75.82;101330.63;5075535;28;19917;-82
2022/10/13 02:46:23;;;;;;;;;;;;;;;13.96;75.11;101338.34;5080041;28;19917;-81
2022/10/13 02:49:08;;;;;;;;;;;;;;;13.55;76.96;101333.34;5079055;28;19916;-81
2022/10/13 02:51:53;;;;;;;;;;;;;;;13.68;76.43;101337.84;5083269;28;19916;-81
2022/10/13 02:54:37;;;;;;;;;;;;;;;13.73;76.34;101325.94;5081418;28;20537;-81
2022/10/13 02:57:22;;;;;;;;;;;;;;;13.74;76.60;101338.50;5084790;28;20307;-81
2022/10/13 03:00:07;;;;;;;;;;;;;;;13.78;76.42;101330.44;5078429;28;19920;-82
2022/10/13 03:02:52;;;;;;;;;;;;;;;13.95;75.40;101333.19;5081552;28;19916;-81
2022/10/13 03:05:37;;;;;;;;;;;;;;;14.06;74.62;101337.19;5078707;28;19916;-82
2022/10/13 03:08:21;;;;;;;;;;;;;;;14.00;74.92;101333.03;5078358;28;19917;-81
2022/10/13 03:11:06;;;;;;;;;;;;;;;14.05;74.48;101335.59;5077907;28;19916;-81
2022/10/13 03:13:50;;;;;;;;;;;;;;;13.96;74.49;101329.31;5078570;28;19916;-81
2022/10/13 03:16:35;;;;;;;;;;;;;;;13.94;74.10;101339.78;5078502;28;19928;-82
2022/10/13 03:19:20;;;;;;;;;;;;;;;13.88;73.92;101336.41;5077711;28;19920;-80
2022/10/13 03:22:04;;;;;;;;;;;;;;;14.00;73.16;101344.75;5083940;28;19920;-81
2022/10/13 03:24:49;;;;;;;;;;;;;;;13.94;73.19;101339.78;5077684;28;19916;-81
2022/10/13 03:27:33;;;;;;;;;;;;;;;13.99;73.04;101334.13;5078218;28;19916;-81
2022/10/13 03:30:17;;;;;;;;;;;;;;;13.91;73.07;101329.50;5077632;28;19917;-81
2022/10/13 03:33:03;;;;;;;;;;;;;;;13.86;73.60;101329.66;5078324;28;19916;-81
2022/10/13 03:35:48;;;;;;;;;;;;;;;13.82;73.86;101336.88;5082787;28;19916;-82
2022/10/13 03:38:33;;;;;;;;;;;;;;;13.62;73.80;101335.56;5083698;28;19917;-82
2022/10/13 03:41:18;;;;;;;;;;;;;;;13.09;75.57;101333.03;5083971;28;19921;-81
2022/10/13 03:44:09;;;;;;;;;;;;;;;13.29;75.34;101335.22;5078718;28;19917;-80
2022/10/13 03:46:54;;;;;;;;;;;;;;;13.24;76.02;101338.09;5082189;28;19916;-81
2022/10/13 03:49:38;;;;;;;;;;;;;;;12.78;77.47;101338.53;5103818;28;19916;-81
2022/10/13 03:52:23;;;;;;;;;;;;;;;12.79;78.61;101340.16;5079562;28;19917;-81
2022/10/13 03:55:07;;;;;;;;;;;;;;;12.58;79.15;101336.38;5076580;28;19916;-82
2022/10/13 03:57:51;;;;;;;;;;;;;;;12.86;78.05;101346.75;5057317;28;20323;-80
2022/10/13 04:00:36;;;;;;;;;;;;;;;12.93;77.40;101342.78;5065937;28;19932;-81
2022/10/13 04:03:20;;;;;;;;;;;;;;;12.57;78.21;101332.03;5077207;28;19916;-82
2022/10/13 04:06:05;;;;;;;;;;;;;;;12.31;80.03;101334.59;5059743;28;19921;-81
2022/10/13 04:08:50;;;;;;;;;;;;;;;12.34;80.13;101336.72;5057769;28;20284;-81
2022/10/13 04:11:35;;;;;;;;;;;;;;;12.28;80.56;101340.69;5057237;28;19917;-81
2022/10/13 04:14:19;;;;;;;;;;;;;;;12.32;80.79;101333.50;5072533;28;20292;-80
2022/10/13 04:17:04;;;;;;;;;;;;;;;12.26;81.26;101338.25;5057240;28;19921;-81
2022/10/13 04:19:48;;;;;;;;;;;;;;;12.37;81.00;101341.53;5056908;28;19947;-80
2022/10/13 04:22:33;;;;;;;;;;;;;;;12.37;80.76;101336.09;5089515;28;19924;-81
2022/10/13 04:25:17;;;;;;;;;;;;;;;12.61;80.43;101328.34;5074361;28;19917;-81
2022/10/13 04:28:03;;;;;;;;;;;;;;;12.76;79.75;101329.84;5076916;28;19916;-82
2022/10/13 04:30:50;;;;;;;;;;;;;;;12.83;79.53;101338.41;5088291;22;20128;-75
2022/10/13 04:33:34;;;;;;;;;;;;;;;12.86;79.58;101324.13;5071094;28;19920;-80
2022/10/13 04:36:18;;;;;;;;;;;;;;;12.86;79.64;101322.19;5064023;28;19916;-76
2022/10/13 04:39:05;;;;;;;;;;;;;;;12.85;79.68;101320.59;5081504;28;20326;-78
2022/10/13 04:41:50;;;;;;;;;;;;;;;13.01;78.82;101317.41;5060740;28;20338;-78
2022/10/13 04:44:35;;;;;;;;;;;;;;;12.91;79.20;101301.34;5045360;28;19921;-76
2022/10/13 04:47:21;;;;;;;;;;;;;;;13.06;78.50;101298.97;5066450;28;19948;-76
2022/10/13 04:50:05;;;;;;;;;;;;;;;13.06;78.24;101292.69;5046131;28;19917;-76
2022/10/13 04:52:49;;;;;;;;;;;;;;;13.09;77.96;101297.53;5053584;28;19917;-79
2022/10/13 04:55:35;;;;;;;;;;;;;;;13.12;77.53;101296.94;5050588;28;20376;-78
2022/10/13 04:58:19;;;;;;;;;;;;;;;13.10;77.27;101290.97;5056645;28;19917;-78
2022/10/13 05:01:05;;;;;;;;;;;;;;;13.00;77.56;101294.00;5053466;28;19929;-78
2022/10/13 05:03:51;;;;;;;;;;;;;;;12.94;77.97;101290.59;5047562;28;19917;-78
2022/10/13 05:06:37;;;;;;;;;;;;;;;12.74;79.07;101286.53;5053088;28;19916;-78
2022/10/13 05:09:21;;;;;;;;;;;;;;;12.64;79.33;101281.34;5044395;28;19920;-77
2022/10/13 05:12:05;;;;;;;;;;;;;;;12.64;78.23;101281.34;5049735;28;19917;-79
2022/10/13 05:14:50;;;;;;;;;;;;;;;12.49;79.41;101287.22;5043240;28;19917;-77
2022/10/13 05:17:34;;;;;;;;;;;;;;;12.42;79.87;101292.31;5043621;28;20317;-80
2022/10/13 05:20:23;;;;;;;;;;;;;;;12.55;79.55;101285.94;5036996;28;20304;-79
2022/10/13 05:23:07;;;;;;;;;;;;;;;12.49;79.69;101284.50;5043204;28;19916;-78
2022/10/13 05:25:52;;;;;;;;;;;;;;;12.54;79.50;101284.34;5054204;28;19917;-80
2022/10/13 05:28:39;;;;;;;;;;;;;;;12.63;79.63;101289.84;5041803;28;19917;-82
2022/10/13 05:31:24;;;;;;;;;;;;;;;12.72;78.83;101293.41;5040288;28;19917;-82
2022/10/13 05:34:09;;;;;;;;;;;;;;;12.76;78.88;101289.72;5055343;28;20383;-79
2022/10/13 05:36:53;;;;;;;;;;;;;;;12.75;78.85;101285.38;5057233;28;20096;-81
2022/10/13 05:39:38;;;;;;;;;;;;;;;12.71;79.07;101295.34;5052707;28;19921;-81
2022/10/13 05:42:22;;;;;;;;;;;;;;;12.77;78.39;101296.81;5046351;28;20303;-80
2022/10/13 05:45:08;;;;;;;;;;;;;;;12.77;78.54;101296.81;5046984;28;19928;-81
2022/10/13 05:47:52;;;;;;;;;;;;;;;12.91;77.58;101304.88;5053242;28;19925;-80
2022/10/13 05:50:36;;;;;;;;;;;;;;;13.07;77.42;101305.25;5053885;28;19917;-84
2022/10/13 05:53:22;;;;;;;;;;;;;;;12.92;77.93;101302.94;5052710;28;19921;-86
2022/10/13 05:56:10;;;;;;;;;;;;;;;12.99;77.88;101308.75;5041928;28;19917;-81
2022/10/13 05:58:58;;;;;;;;;;;;;;;13.39;76.74;101298.59;5038489;28;19917;-80
2022/10/13 06:01:43;;;;;;;;;;;;;;;14.80;71.03;101306.75;5049962;28;20308;-77
2022/10/13 06:04:30;;;;;;;;;;;;;;;15.97;66.00;101303.91;5049299;28;20383;-77
2022/10/13 06:07:15;;;;;;;;;;;;;;;16.59;63.13;101302.94;5051591;28;19925;-80
2022/10/13 06:10:00;;;;;;;;;;;;;;;17.34;60.48;101306.16;5044323;28;19921;-78
2022/10/13 06:12:45;;;;;;;;;;;;;;;18.03;57.77;101311.34;5046093;28;19916;-79
2022/10/13 06:15:29;;;;;;;;;;;;;;;17.84;57.78;101308.44;5044978;28;19917;-78
2022/10/13 06:18:14;;;;;;;;;;;;;;;16.16;63.67;101309.69;5043281;28;19917;-77
2022/10/13 06:20:58;;;;;;;;;;;;;;;15.98;64.90;101319.22;5049927;28;19983;-80
2022/10/13 06:23:42;;;;;;;;;;;;;;;15.74;66.06;101314.44;5058430;28;19916;-80
2022/10/13 06:26:27;;;;;;;;;;;;;;;15.16;68.79;101331.72;5056851;28;20304;-79
2022/10/13 06:29:11;;;;;;;;;;;;;;;15.19;69.22;101314.59;5059910;28;19920;-79
2022/10/13 06:31:56;;;;;;;;;;;;;;;14.97;70.55;101317.66;5056143;28;19916;-77
2022/10/13 06:34:40;;;;;;;;;;;;;;;14.97;71.04;101312.97;5056536;28;19917;-76
2022/10/13 06:37:25;;;;;;;;;;;;;;;15.14;70.85;101320.28;5060553;28;19917;-76
2022/10/13 06:40:10;;;;;;;;;;;;;;;14.95;71.55;101322.63;5053555;28;19921;-80
2022/10/13 06:42:54;;;;;;;;;;;;;;;15.19;71.06;101324.75;5052612;28;19916;-78
2022/10/13 06:45:40;;;;;;;;;;;;;;;15.47;70.24;101325.88;5060860;28;20292;-78
2022/10/13 06:48:25;;;;;;;;;;;;;;;15.57;69.81;101331.00;5058566;28;19917;-77
2022/10/13 06:51:10;;;;;;;;;;;;;;;15.71;70.29;101325.25;5057414;28;19917;-79
2022/10/13 06:53:55;;;;;;;;;;;;;;;15.98;69.19;101321.97;5044061;28;19917;-79
2022/10/13 06:56:43;;;;;;;;;;;;;;;16.12;68.74;101324.41;5064001;28;20385;-79
2022/10/13 06:59:27;;;;;;;;;;;;;;;16.19;68.86;101327.41;5050947;28;20407;-80
2022/10/13 07:02:12;;;;;;;;;;;;;;;16.39;68.25;101331.25;5054772;28;19921;-79
2022/10/13 07:04:56;;;;;;;;;;;;;;;16.68;67.10;101322.88;5053137;28;20388;-78
2022/10/13 07:07:40;;;;;;;;;;;;;;;16.83;67.07;101321.41;5051277;28;19917;-77
2022/10/13 07:10:25;;;;;;;;;;;;;;;16.89;65.97;101325.53;5049163;28;19917;-78
2022/10/13 07:13:09;;;;;;;;;;;;;;;16.86;65.99;101326.22;5053203;28;19917;-80
2022/10/13 07:15:54;;;;;;;;;;;;;;;16.82;65.71;101345.31;5035849;28;19917;-78
2022/10/13 07:18:38;;;;;;;;;;;;;;;16.89;65.60;101336.50;5049359;28;20376;-78
2022/10/13 07:21:23;;;;;;;;;;;;;;;17.26;65.10;101342.81;5035712;28;19921;-79
2022/10/13 07:24:08;;;;;;;;;;;;;;;17.20;64.76;101346.94;5035616;28;19918;-76
2022/10/13 07:26:53;;;;;;;;;;;;;;;17.21;64.57;101348.53;5035585;28;19917;-77
2022/10/13 07:29:38;;;;;;;;;;;;;;;17.44;64.18;101344.97;5035056;28;19917;-79
2022/10/13 07:32:22;;;;;;;;;;;;;;;17.30;63.51;101349.22;5036403;28;19921;-76
2022/10/13 07:35:10;;;;;;;;;;;;;;;17.47;62.17;101351.72;5035239;28;19917;-78
2022/10/13 07:37:55;;;;;;;;;;;;;;;17.55;61.76;101345.28;5035528;28;20387;-79
2022/10/13 07:40:39;;;;;;;;;;;;;;;17.39;61.82;101347.16;5051139;28;19921;-78
2022/10/13 07:43:24;;;;;;;;;;;;;;;17.35;60.89;101346.25;5049377;28;19917;-78
2022/10/13 07:46:11;;;;;;;;;;;;;;;17.51;60.42;101341.63;5035253;28;19917;-79
2022/10/13 07:48:55;;;;;;;;;;;;;;;17.46;61.28;101350.13;5051180;28;19917;-77
2022/10/13 07:51:40;;;;;;;;;;;;;;;17.41;61.62;101348.41;5049223;28;19917;-76
2022/10/13 07:54:25;;;;;;;;;;;;;;;17.57;61.26;101344.94;5039002;28;19921;-79
2022/10/13 07:57:09;;;;;;;;;;;;;;;17.64;61.49;101343.25;5051435;28;19917;-78
2022/10/13 07:59:54;;;;;;;;;;;;;;;17.64;61.33;101339.69;5034318;28;19921;-79
2022/10/13 08:02:38;;;;;;;;;;;;;;;17.63;61.69;101343.56;5034563;28;19917;-77
2022/10/13 08:05:23;;;;;;;;;;;;;;;17.65;62.07;101341.28;5051694;28;19925;-78
2022/10/13 08:08:07;;;;;;;;;;;;;;;17.65;60.40;101344.84;5049579;28;19917;-78
2022/10/13 08:10:51;;;;;;;;;;;;;;;17.77;61.37;101342.06;5034730;28;19917;-80
2022/10/13 08:13:37;;;;;;;;;;;;;;;17.97;60.92;101342.22;5038428;28;19925;-80
2022/10/13 08:16:31;;;;;;;;;;;;;;;17.93;61.00;101342.13;5052640;28;19917;-81
2022/10/13 08:19:16;;;;;;;;;;;;;;;17.95;60.94;101339.81;5056107;28;19917;-81
2022/10/13 08:22:00;;;;;;;;;;;;;;;18.00;60.39;101342.31;5038029;28;19921;-80
2022/10/13 08:24:47;;;;;;;;;;;;;;;18.14;60.55;101334.47;5037562;28;19917;-80
2022/10/13 08:27:31;;;;;;;;;;;;;;;18.21;60.51;101339.38;5050014;28;19917;-80
2022/10/13 08:30:15;;;;;;;;;;;;;;;18.28;60.25;101334.06;5036416;28;19917;-80
2022/10/13 08:33:00;;;;;;;;;;;;;;;18.35;60.95;101337.00;5051883;28;20312;-78
2022/10/13 08:35:44;;;;;;;;;;;;;;;18.55;60.50;101336.00;5036271;28;19917;-80
2022/10/13 08:38:30;;;;;;;;;;;;;;;18.50;60.74;101333.47;5053343;28;19917;-79
2022/10/13 08:41:29;;;;;;;;;;;;;;;18.55;60.32;101333.25;5036305;28;20384;-79
2022/10/13 08:44:19;;;;;;;;;;;;;;;18.70;60.35;101331.66;5035580;28;19921;-79
2022/10/13 08:47:22;;;;;;;;;;;;;;;18.74;60.01;101321.53;5052486;28;19917;-78
2022/10/13 08:50:14;;;;;;;;;;;;;;;18.79;60.04;101329.53;5035412;28;20302;-79
2022/10/13 08:53:06;;;;;;;;;;;;;;;18.97;59.71;101329.97;5035444;28;19917;-80
2022/10/13 08:55:58;;;;;;;;;;;;;;;19.00;59.36;101324.53;5050469;28;20296;-80
2022/10/13 08:58:43;;;;;;;;;;;;;;;18.92;59.73;101324.72;5034727;28;19917;-79
2022/10/13 09:01:30;;;;;;;;;;;;;;;19.07;59.39;101321.16;5035101;28;19921;-80
2022/10/13 09:04:27;;;;;;;;;;;;;;;19.21;58.90;101329.75;5050003;28;20380;-79
2022/10/13 09:07:14;;;;;;;;;;;;;;;19.19;59.56;101324.63;5053464;28;19920;-81
2022/10/13 09:09:59;;;;;;;;;;;;;;;19.31;58.74;101329.19;5034362;28;19921;-80
2022/10/13 09:12:45;;;;;;;;;;;;;;;19.29;58.63;101325.22;5035059;28;20288;-80
2022/10/13 09:15:41;;;;;;;;;;;;;;;19.36;57.73;101328.91;5034664;28;20370;-78
2022/10/13 09:18:29;;;;;;;;;;;;;;;19.70;56.28;101321.03;5050427;28;19917;-78
2022/10/13 09:21:20;;;;;;;;;;;;;;;19.87;54.31;101310.34;5048467;28;19937;-79
2022/10/13 09:24:07;;;;;;;;;;;;;;;19.80;55.64;101318.50;5037917;28;19921;-79
2022/10/13 09:27:11;;;;;;;;;;;;;;;20.03;54.08;101310.28;5050602;28;20011;-81
2022/10/13 09:29:57;;;;;;;;;;;;;;;20.15;54.64;101312.88;5041266;28;20404;-81
2022/10/13 09:32:41;;;;;;;;;;;;;;;20.10;55.10;101313.19;5043277;28;20319;-80
2022/10/13 09:35:26;;;;;;;;;;;;;;;20.46;54.02;101309.94;5046681;28;19917;-81
2022/10/13 09:38:18;;;;;;;;;;;;;;;20.54;54.08;101308.09;5047022;28;19917;-80
2022/10/13 09:41:19;;;;;;;;;;;;;;;20.72;54.71;101309.22;5047345;28;19925;-79
2022/10/13 09:44:15;;;;;;;;;;;;;;;20.94;53.78;101315.88;5033950;28;19917;-77
2022/10/13 09:47:01;;;;;;;;;;;;;;;20.59;54.54;101298.69;5049573;28;19916;-80
2022/10/13 09:49:56;;;;;;;;;;;;;;;20.44;55.10;101292.13;5041120;28;19920;-77
2022/10/13 09:52:41;;;;;;;;;;;;;;;20.71;54.18;101304.06;5040383;28;19917;-78
2022/10/13 09:55:33;;;;;;;;;;;;;;;20.63;53.94;101297.59;5044673;28;19917;-78
2022/10/13 09:58:21;;;;;;;;;;;;;;;21.03;52.94;101291.50;5041158;28;19917;-80
2022/10/13 10:01:08;;;;;;;;;;;;;;;20.85;53.25;101295.97;5051478;28;19921;-80
2022/10/13 10:03:54;;;;;;;;;;;;;;;21.22;52.92;101285.94;5051553;28;19921;-80
2022/10/13 10:06:39;;;;;;;;;;;;;;;21.21;52.63;101292.63;5041707;28;19920;-77
2022/10/13 10:09:35;;;;;;;;;;;;;;;21.39;51.83;101290.09;5042972;28;19917;-80
2022/10/13 10:12:21;;;;;;;;;;;;;;;21.67;50.96;101279.41;5049305;28;19917;-79
2022/10/13 10:15:15;;;;;;;;;;;;;;;22.04;50.30;101281.47;5049447;28;19917;-78
2022/10/13 10:18:06;;;;;;;;;;;;;;;22.30;49.97;101269.47;5051652;28;19921;-78
2022/10/13 10:21:07;;;;;;;;;;;;;;;22.21;50.28;101266.19;5046026;28;20454;-79
2022/10/13 10:23:57;;;;;;;;;;;;;;;21.83;50.02;101268.13;5036110;28;20311;-79
2022/10/13 10:27:01;;;;;;;;;;;;;;;22.65;48.27;101268.97;5042092;28;20395;-79
2022/10/13 10:29:48;;;;;;;;;;;;;;;22.87;47.32;101268.75;5043720;28;20288;-79
2022/10/13 10:32:36;;;;;;;;;;;;;;;22.31;49.04;101259.94;5040804;28;19932;-75
2022/10/13 10:35:43;;;;;;;;;;;;;;;22.20;49.52;101251.53;5047524;28;19917;-78
2022/10/13 10:38:48;;;;;;;;;;;;;;;22.76;48.19;101254.03;5057095;28;19917;-77
2022/10/13 10:41:32;;;;;;;;;;;;;;;22.96;47.57;101252.56;5054907;28;19925;-77
2022/10/13 10:44:37;;;;;;;;;;;;;;;24.06;44.71;101242.00;5052328;28;19917;-79
2022/10/13 10:47:25;;;;;;;;;;;;;;;24.53;43.46;101232.50;5048565;28;19917;-77
2022/10/13 10:50:13;;;;;;;;;;;;;;;24.82;43.02;101233.28;5052038;28;19917;-76
2022/10/13 10:52:58;;;;;;;;;;;;;;;24.41;43.64;101227.34;5039234;28;19924;-77
2022/10/13 10:56:01;;;;;;;;;;;;;;;25.27;41.47;101225.25;5043940;28;19917;-77
2022/10/13 10:58:51;;;;;;;;;;;;;;;24.75;39.99;101216.59;5039649;28;19917;-78
2022/10/13 11:01:55;;;;;;;;;;;;;;;24.25;41.12;101213.84;5041850;28;19920;-81
2022/10/13 11:04:40;;;;;;;;;;;;;;;23.91;42.56;101209.81;5054140;28;19916;-79
2022/10/13 11:07:24;;;;;;;;;;;;;;;23.67;42.96;101200.22;5046231;28;19917;-80
2022/10/13 11:10:09;;;;;;;;;;;;;;;23.05;43.13;101209.84;5044756;28;19916;-80
2022/10/13 11:12:54;;;;;;;;;;;;;;;23.25;42.61;101205.59;5052833;28;19921;-86
2022/10/13 11:15:43;;;;;;;;;;;;;;;23.87;41.42;101203.47;5057358;28;20308;-79
2022/10/13 11:18:46;;;;;;;;;;;;;;;23.58;41.72;101199.00;5056542;28;19921;-81
2022/10/13 11:21:57;;;;;;;;;;;;;;;23.53;40.79;101197.38;5057557;28;19921;-79
2022/10/13 11:24:41;;;;;;;;;;;;;;;23.18;42.48;101200.78;5063202;28;19924;-77
2022/10/13 11:27:31;;;;;;;;;;;;;;;23.62;41.91;101188.72;5061608;28;19916;-79
2022/10/13 11:30:34;;;;;;;;;;;;;;;23.84;41.07;101182.00;5062642;28;19917;-78
2022/10/13 11:33:50;;;;;;;;;;;;;;;24.25;40.08;101176.91;5059839;28;19917;-81
2022/10/13 11:36:46;;;;;;;;;;;;;;;24.71;39.86;101166.53;5063934;28;19916;-78
2022/10/13 11:39:41;;;;;;;;;;;;;;;25.34;38.95;101159.22;5059992;28;20379;-79
2022/10/13 11:42:45;;;;;;;;;;;;;;;25.59;38.90;101158.31;5052224;28;19924;-78
2022/10/13 11:45:42;;;;;;;;;;;;;;;25.52;40.14;101154.34;5052707;28;19916;-80
2022/10/13 11:48:36;;;;;;;;;;;;;;;28.34;34.38;101153.63;5043192;28;19917;-82
2022/10/13 11:51:27;;;;;;;;;;;;;;;31.21;29.54;101169.47;5040281;28;19917;-80
2022/10/13 11:54:23;;;;;;;;;;;;;;;33.86;25.18;101165.94;5057114;28;19917;-79
2022/10/13 11:57:18;;;;;;;;;;;;;;;35.12;23.21;101160.09;5039810;28;19917;-80
2022/10/13 12:00:03;;;;;;;;;;;;;;;32.12;26.25;101154.59;5038722;28;20300;-81
2022/10/13 12:02:57;;;;;;;;;;;;;;;32.69;25.74;101149.84;5039019;28;19922;-80
2022/10/13 12:05:41;;;;;;;;;;;;;;;33.23;25.26;101151.50;5052871;28;19917;-80
2022/10/13 12:08:27;;;;;;;;;;;;;;;32.46;26.51;101153.06;5037461;28;19920;-81
2022/10/13 12:11:23;;;;;;;;;;;;;;;33.74;25.21;101149.09;5039061;28;19917;-79
2022/10/13 12:14:19;;;;;;;;;;;;;;;35.46;22.35;101147.63;5060538;28;20320;-80
2022/10/13 12:17:18;;;;;;;;;;;;;;;29.67;30.10;101135.34;5064292;28;19921;-83
2022/10/13 12:20:18;;;;;;;;;;;;;;;29.65;30.15;101132.19;5054743;28;20380;-79
2022/10/13 12:23:03;;;;;;;;;;;;;;;29.98;29.19;101130.22;5061735;28;19920;-80
2022/10/13 12:25:48;;;;;;;;;;;;;;;29.16;31.15;101122.06;5049683;28;19917;-80
2022/10/13 12:28:47;;;;;;;;;;;;;;;28.17;32.60;101116.34;5047321;28;20392;-79
2022/10/13 12:31:41;;;;;;;;;;;;;;;28.03;32.24;101111.78;5046990;28;19917;-78
2022/10/13 12:34:27;;;;;;;;;;;;;;;27.96;32.74;101106.28;5046861;28;19917;-78
2022/10/13 12:37:26;;;;;;;;;;;;;;;26.91;35.15;101108.59;5049593;28;20376;-78
2022/10/13 12:40:15;;;;;;;;;;;;;;;25.66;36.81;101108.91;5043749;28;20300;-81
2022/10/13 12:43:00;;;;;;;;;;;;;;;24.89;39.40;101110.09;5040656;28;19921;-78
2022/10/13 12:45:44;;;;;;;;;;;;;;;24.82;39.73;101110.88;5039595;28;19917;-78
2022/10/13 12:48:31;;;;;;;;;;;;;;;24.98;39.47;101102.09;5049639;28;19917;-79
2022/10/13 12:51:19;;;;;;;;;;;;;;;24.98;39.27;101096.53;5046283;28;19917;-78
2022/10/13 12:54:07;;;;;;;;;;;;;;;24.81;39.56;101108.50;5067130;28;19928;-79
2022/10/13 12:56:53;;;;;;;;;;;;;;;25.13;39.16;101104.44;5053575;28;19916;-80
2022/10/13 12:59:40;;;;;;;;;;;;;;;25.16;38.91;101102.00;5060383;28;19917;-78
2022/10/13 13:02:26;;;;;;;;;;;;;;;25.13;39.78;101098.84;5048094;28;19921;-81
2022/10/13 13:05:30;;;;;;;;;;;;;;;24.98;39.72;101102.09;5044903;28;19916;-78
2022/10/13 13:08:22;;;;;;;;;;;;;;;25.26;39.49;101095.59;5046460;28;19925;-78
2022/10/13 13:11:18;;;;;;;;;;;;;;;25.86;38.06;101095.22;5052879;28;20387;-78
2022/10/13 13:14:21;;;;;;;;;;;;;;;27.26;35.29;101096.16;5053158;28;19921;-77
2022/10/13 13:17:15;;;;;;;;;;;;;;;27.85;34.15;101088.91;5058146;28;19924;-77
2022/10/13 13:19:59;;;;;;;;;;;;;;;29.52;30.45;101094.06;5052751;28;20303;-78
2022/10/13 13:22:44;;;;;;;;;;;;;;;30.30;29.89;101100.56;5053592;28;20315;-79
2022/10/13 13:25:28;;;;;;;;;;;;;;;30.27;29.06;101101.47;5057488;28;19917;-78
2022/10/13 13:28:13;;;;;;;;;;;;;;;30.97;28.66;101101.53;5052766;28;19921;-78
2022/10/13 13:30:58;;;;;;;;;;;;;;;31.44;27.72;101093.28;5051741;28;19924;-78
2022/10/13 13:33:42;;;;;;;;;;;;;;;29.86;29.34;101099.28;5052652;28;19917;-76
2022/10/13 13:36:28;;;;;;;;;;;;;;;30.77;28.61;101086.84;5052708;28;20292;-80
2022/10/13 13:39:17;;;;;;;;;;;;;;;29.74;29.76;101084.72;5068082;28;20388;-79
2022/10/13 13:42:01;;;;;;;;;;;;;;;25.78;36.89;101075.00;5051529;28;20384;-78
2022/10/13 13:44:45;;;;;;;;;;;;;;;25.61;37.17;101077.91;5055921;28;19917;-79
2022/10/13 13:47:30;;;;;;;;;;;;;;;25.18;37.89;101067.03;5052551;28;19916;-79
2022/10/13 13:50:16;;;;;;;;;;;;;;;25.74;37.39;101068.66;5052383;28;19917;-81
2022/10/13 13:53:04;;;;;;;;;;;;;;;26.51;35.52;101057.22;5057343;28;20396;-82
2022/10/13 13:55:49;;;;;;;;;;;;;;;26.81;34.82;101060.81;5054085;28;19917;-81
2022/10/13 13:58:36;;;;;;;;;;;;;;;26.92;34.94;101059.94;5053806;28;20295;-81
2022/10/13 14:01:20;;;;;;;;;;;;;;;25.53;37.48;101050.09;5050967;28;19925;-81
2022/10/13 14:04:04;;;;;;;;;;;;;;;24.90;38.75;101047.66;5053383;28;19920;-79
2022/10/13 14:06:50;;;;;;;;;;;;;;;24.45;39.92;101044.63;5046099;28;19924;-81
2022/10/13 14:09:34;;;;;;;;;;;;;;;24.00;41.13;101046.28;5045342;28;19917;-82
2022/10/13 14:12:19;;;;;;;;;;;;;;;23.56;41.97;101048.66;5068903;28;20396;-78
2022/10/13 14:15:04;;;;;;;;;;;;;;;23.42;42.33;101041.88;5053163;28;19920;-79
2022/10/13 14:17:52;;;;;;;;;;;;;;;23.71;41.15;101045.50;5065340;28;19917;-79
2022/10/13 14:20:40;;;;;;;;;;;;;;;23.90;41.61;101046.28;5042980;28;20003;-80